Tuesday, September 16, 2014, 5:26 PM EDT

KESN, Easton / Newman Field

Location: Easton, MD, United States Lat: 38.8
Local Time: 5:26 PM EDT (21:26 GMT) Lon: -76.067
Time Zone: US/Eastern Elev: 72 ft

Show me the last for .
Show Decoded

2014-09-16 16:55 METAR KESN 162055Z 34006KT 10SM SCT044 SCT070 24/14 A3002 =
2014-09-16 15:55 METAR KESN 161955Z 34006KT 10SM SCT044 SCT050 24/14 A3001 =
2014-09-16 14:46 METAR KESN 161846Z 35008KT 10SM SCT045 24/14 A3002 =
2014-09-16 13:50 METAR KESN 161750Z 35007KT 10SM SCT045 24/14 A3003 =
2014-09-16 12:50 METAR KESN 161650Z 34009G16KT 10SM FEW030 25/14 A3003 =
2014-09-16 11:55 METAR KESN 161555Z 35010G16KT 10SM FEW030 24/14 A3005 =
2014-09-16 10:50 METAR KESN 161450Z 35010KT 10SM SKC 23/15 A3005 =
2014-09-16 09:55 METAR KESN 161355Z 32006KT 10SM SKC 23/18 A3005 =
2014-09-16 08:50 METAR KESN 161250Z 00000KT 10SM SKC 21/21 A3004 =
2014-09-16 07:50 METAR KESN 161150Z 00000KT 10SM BKN150 19/19 A3004 =
2014-09-16 06:50 METAR KESN 161050Z 00000KT 10SM FG SCT015 SCT050 18/18 A3004 =
2014-09-16 06:26 METAR KESN 161026Z AUTO 00000KT 5SM BR SCT002 SCT006 BKN046 18/18 A3004 RMK AO2
                 P0001 T01800180 =
2014-09-16 06:16 METAR KESN 161022Z AUTO 00000KT 5SM BR SCT004 SCT012 BKN046 18/18 A3003 =
2014-09-16 06:16 METAR KESN 161022Z AUTO 00000KT 5SM BR SCT004 SCT012 BKN046 18/18 A3003 RMK AO2
                 P0001 T01780178 =
2014-09-16 06:02 METAR KESN 161002Z AUTO 00000KT 4SM -RA SCT007 BKN012 BKN017 18/18 A3003 RMK AO2
                 P0001 T01800180 =
2014-09-16 05:50 METAR KESN 160950Z 00000KT 5SM BR BKN014 BKN021 OVC048 18/18 A3004 =
2014-09-16 05:42 METAR KESN 160942Z AUTO 00000KT 5SM +RA SCT003 SCT009 SCT014 18/18 A3003 RMK AO2
                 P0011 T01770177 =
2014-09-16 05:16 METAR KESN 160922Z AUTO 00000KT 3SM +RA SCT005 SCT009 BKN016 18/18 A3003 =
2014-09-16 05:16 METAR KESN 160922Z AUTO 00000KT 3SM +RA SCT005 SCT009 BKN016 18/18 A3003 RMK AO2
                 P0007 T01800180 =
2014-09-16 05:02 METAR KESN 160902Z AUTO 00000KT 10SM SCT011 BKN025 BKN030 18/18 A3002 RMK AO2
                 T01790179 =
2014-09-16 04:42 METAR KESN 160842Z AUTO 00000KT 10SM -RA SCT014 SCT029 BKN036 18/18 A3003 RMK
                 AO2 T01760176 =
2014-09-16 04:16 METAR KESN 160822Z AUTO 15004KT 10SM BKN034 BKN049 OVC065 18/18 A3004 =
2014-09-16 04:16 METAR KESN 160822Z AUTO 15004KT 10SM BKN034 BKN049 OVC065 18/18 A3004 RMK AO2
                 T01760176 =
2014-09-16 04:02 METAR KESN 160802Z AUTO 00000KT 10SM BKN036 BKN065 17/17 A3005 RMK AO2 T01720172
                 =
2014-09-16 03:41 METAR KESN 160742Z AUTO 00000KT 10SM SCT040 SCT048 SCT055 17/17 A3005 =
2014-09-16 03:41 METAR KESN 160742Z AUTO 00000KT 10SM SCT040 SCT048 SCT055 17/17 A3005 RMK AO2
                 T01710171 =
2014-09-16 03:16 METAR KESN 160722Z AUTO 00000KT 10SM SCT048 SCT075 17/17 A3006 =
2014-09-16 03:16 METAR KESN 160722Z AUTO 00000KT 10SM SCT048 SCT075 17/17 A3006 RMK AO2 T01650165
                 =
2014-09-16 03:02 METAR KESN 160702Z AUTO 00000KT 10SM SCT075 17/17 A3007 RMK AO2 T01650165 =
2014-09-16 02:41 METAR KESN 160642Z AUTO 00000KT 10SM CLR 17/17 A3007 =
2014-09-16 02:41 METAR KESN 160642Z AUTO 00000KT 10SM CLR 17/17 A3007 RMK AO2 T01650165 =
2014-09-16 02:19 METAR KESN 160622Z AUTO 00000KT 10SM CLR 17/17 A3008 =
2014-09-16 02:19 METAR KESN 160622Z AUTO 00000KT 10SM CLR 17/17 A3008 RMK AO2 T01670167 =
2014-09-16 02:02 METAR KESN 160602Z AUTO 00000KT 10SM CLR 17/17 A3008 =
2014-09-16 02:01 METAR KESN 160602Z AUTO 00000KT 10SM CLR 17/17 A3008 RMK AO2 T01670167 =
2014-09-16 01:41 METAR KESN 160542Z AUTO 00000KT 10SM CLR 17/17 A3008 =
2014-09-16 01:41 METAR KESN 160542Z AUTO 00000KT 10SM CLR 17/17 A3008 RMK AO2 T01720172 =
2014-09-16 01:16 METAR KESN 160522Z AUTO 00000KT 10SM SCT040 18/17 A3008 =
2014-09-16 01:16 METAR KESN 160522Z AUTO 00000KT 10SM SCT040 18/17 A3008 RMK AO2 T01750166 =
2014-09-16 01:01 METAR KESN 160502Z AUTO 00000KT 10SM SCT036 SCT042 18/16 A3009 RMK AO2 T01750162
                 =
2014-09-16 00:41 METAR KESN 160442Z AUTO 00000KT 10SM SCT023 SCT036 BKN044 17/16 A3009 =
2014-09-16 00:34 METAR KESN 160442Z AUTO 00000KT 10SM SCT023 SCT036 BKN044 17/16 A3009 RMK AO2
                 T01740159 =
2014-09-16 00:17 METAR KESN 160422Z AUTO 00000KT 10SM SCT023 BKN030 BKN038 18/16 A3010 =
2014-09-16 00:16 METAR KESN 160422Z AUTO 00000KT 10SM SCT023 BKN030 BKN038 18/16 A3010 RMK AO2
                 T01760157 =
2014-09-16 00:02 METAR KESN 160402Z AUTO 00000KT 10SM SCT025 SCT031 OVC036 18/16 A3011 RMK AO2
                 T01750156 =
2014-09-15 23:41 METAR KESN 160342Z AUTO 00000KT 10SM SCT036 SCT110 17/16 A3012 =
2014-09-15 23:41 METAR KESN 160342Z AUTO 00000KT 10SM SCT036 SCT110 17/16 A3012 RMK AO2 T01710155
                 =
2014-09-15 23:17 METAR KESN 160322Z AUTO 00000KT 10SM CLR 17/16 A3011 =
2014-09-15 23:17 METAR KESN 160322Z AUTO 00000KT 10SM CLR 17/16 A3011 RMK AO2 T01670155 =
2014-09-15 23:02 METAR KESN 160302Z AUTO 00000KT 10SM CLR 17/16 A3013 =
2014-09-15 23:01 METAR KESN 160302Z AUTO 00000KT 10SM CLR 17/16 A3013 RMK AO2 T01710156 =
2014-09-15 22:41 METAR KESN 160241Z AUTO 00000KT 10SM CLR 17/15 A3013 RMK AO2 T01730147 =
2014-09-15 20:53 METAR KESN 160053Z 00000KT 10SM BKN250 18/14 A3016 =
2014-09-15 19:50 METAR KESN 152350Z 00000KT 10SM BKN250 19/14 A3015 =
2014-09-15 18:50 METAR KESN 152250Z 00000KT 10SM BKN250 21/13 A3016 =
2014-09-15 17:50 METAR KESN 152150Z 00000KT 10SM BKN250 22/12 A3017 =

Support USWX by starting your Amazon purchase here.